createdAt,value
2019-05-19T00:01:00.683Z,100534.03
2019-05-19T00:03:29.114Z,100530.00
2019-05-19T00:05:57.568Z,100535.87
2019-05-19T00:08:26.044Z,100534.20
2019-05-19T00:10:54.478Z,100530.68
2019-05-19T00:13:22.922Z,100533.23
2019-05-19T00:15:51.358Z,100533.40
2019-05-19T00:18:19.783Z,100534.91
2019-05-19T00:20:48.243Z,100535.23
2019-05-19T00:23:16.841Z,100537.62
2019-05-19T00:25:45.338Z,100532.08
2019-05-19T00:28:13.777Z,100533.59
2019-05-19T00:30:42.227Z,100538.63
2019-05-19T00:33:10.665Z,100537.95
2019-05-19T00:35:39.113Z,100543.65
2019-05-19T00:38:07.571Z,100540.77
2019-05-19T00:40:36.025Z,100546.14
2019-05-19T00:43:04.473Z,100557.04
2019-05-19T00:45:33.020Z,100541.95
2019-05-19T00:48:01.465Z,100553.15
2019-05-19T00:50:29.891Z,100547.44
2019-05-19T00:52:59.102Z,100542.71
2019-05-19T00:55:27.533Z,100543.88
2019-05-19T00:57:56.909Z,100543.16
2019-05-19T01:00:25.351Z,100538.99
2019-05-19T01:02:53.791Z,100542.16
2019-05-19T01:05:22.239Z,100534.73
2019-05-19T01:07:50.689Z,100526.67
2019-05-19T01:10:19.199Z,100530.69
2019-05-19T01:12:47.721Z,100531.98
2019-05-19T01:15:17.761Z,100532.97
2019-05-19T01:17:46.197Z,100531.62
2019-05-19T01:20:15.981Z,100534.92
2019-05-19T01:22:44.461Z,100530.89
2019-05-19T01:25:13.986Z,100538.60
2019-05-19T01:27:42.420Z,100534.91
2019-05-19T01:30:11.495Z,100532.20
2019-05-19T01:32:39.927Z,100532.87
2019-05-19T01:35:08.994Z,100529.67
2019-05-19T01:37:37.429Z,100528.79
2019-05-19T01:40:09.281Z,100529.63
2019-05-19T01:42:37.801Z,100531.13
2019-05-19T01:45:07.259Z,100520.71
2019-05-19T01:47:35.783Z,100523.88
2019-05-19T01:50:17.682Z,100515.14
2019-05-19T01:52:36.263Z,100522.88
2019-05-19T01:55:05.563Z,100520.64
2019-05-19T01:57:33.992Z,100520.64
2019-05-19T02:00:03.528Z,100524.38
2019-05-19T02:02:32.419Z,100523.33
2019-05-19T02:05:00.845Z,100519.95
2019-05-19T02:07:29.294Z,100517.45
2019-05-19T02:09:57.740Z,100510.73
2019-05-19T02:12:26.160Z,100509.89
2019-05-19T02:14:54.625Z,100504.22
2019-05-19T02:17:23.055Z,100503.55
2019-05-19T02:19:51.483Z,100501.55
2019-05-19T02:22:19.943Z,100506.92
2019-05-19T02:24:48.375Z,100506.27
2019-05-19T02:27:16.813Z,100506.44
2019-05-19T02:29:45.247Z,100497.38
2019-05-19T02:32:13.714Z,100498.22
2019-05-19T02:34:42.176Z,100500.63
2019-05-19T02:37:10.638Z,100494.42
2019-05-19T02:39:39.073Z,100497.13
2019-05-19T02:42:09.647Z,100499.32
2019-05-19T02:44:39.816Z,100499.49
2019-05-19T02:47:09.897Z,100509.41
2019-05-19T02:49:39.690Z,100513.43
2019-05-19T02:52:10.317Z,100511.25
2019-05-19T02:54:39.051Z,100518.98
2019-05-19T02:57:08.140Z,100514.79
2019-05-19T02:59:37.036Z,100510.97
2019-05-19T03:02:07.095Z,100517.17
2019-05-19T03:04:35.541Z,100520.72
2019-05-19T03:07:04.042Z,100525.42
2019-05-19T03:09:32.488Z,100521.56
2019-05-19T03:12:00.914Z,100527.44
2019-05-19T03:14:29.349Z,100528.63
2019-05-19T03:16:57.769Z,100530.80
2019-05-19T03:19:26.213Z,100526.62
2019-05-19T03:21:54.804Z,100533.00
2019-05-19T03:24:23.238Z,100534.01
2019-05-19T03:26:51.664Z,100531.02
2019-05-19T03:29:21.780Z,100531.87
2019-05-19T03:31:58.060Z,100535.06
2019-05-19T03:34:27.278Z,100538.08
2019-05-19T03:36:55.705Z,100542.45
2019-05-19T03:39:24.132Z,100547.99
2019-05-19T03:41:52.624Z,100548.33
2019-05-19T03:44:21.061Z,100556.56
2019-05-19T03:46:49.487Z,100555.55
2019-05-19T03:49:17.960Z,100554.55
2019-05-19T03:51:46.433Z,100253.39
2019-05-19T03:54:14.883Z,100565.29
2019-05-19T03:56:43.375Z,100564.98
2019-05-19T03:59:11.839Z,100560.62
2019-05-19T04:01:40.295Z,100562.30
2019-05-19T04:04:08.717Z,100565.29
2019-05-19T04:06:37.163Z,100566.63
2019-05-19T04:09:07.023Z,100571.20
2019-05-19T04:11:35.803Z,100573.84
2019-05-19T04:14:04.315Z,100560.92
2019-05-19T04:16:32.753Z,100573.00
2019-05-19T04:19:01.220Z,100567.80
2019-05-19T04:21:38.744Z,100564.28
2019-05-19T04:23:59.863Z,100569.31
2019-05-19T04:26:28.300Z,100564.15
2019-05-19T04:28:56.731Z,100567.84
2019-05-19T04:31:25.170Z,100573.55
2019-05-19T04:33:53.607Z,100573.55
2019-05-19T04:36:22.128Z,100576.03
2019-05-19T04:38:50.597Z,100573.88
2019-05-19T04:41:19.027Z,100586.77
2019-05-19T04:43:47.660Z,100581.09
2019-05-19T04:46:16.442Z,100583.91
2019-05-19T04:48:44.888Z,100581.73
2019-05-19T04:51:13.344Z,100575.69
2019-05-19T04:53:41.770Z,100573.34
2019-05-19T04:56:10.234Z,100575.02
2019-05-19T04:58:38.663Z,100575.86
2019-05-19T05:01:07.080Z,100568.13
2019-05-19T05:03:35.517Z,100561.08
2019-05-19T05:06:04.069Z,100568.95
2019-05-19T05:08:32.498Z,100569.30
2019-05-19T05:11:00.938Z,100563.55
2019-05-19T05:13:29.373Z,100569.75
2019-05-19T05:15:57.840Z,100569.41
2019-05-19T05:18:26.312Z,100571.41
2019-05-19T05:20:54.714Z,100568.72
2019-05-19T05:23:23.141Z,100559.44
2019-05-19T05:25:51.573Z,100564.47
2019-05-19T05:28:20.007Z,100570.51
2019-05-19T05:30:48.444Z,100572.34
2019-05-19T05:33:18.080Z,100503.69
2019-05-19T05:35:46.515Z,100569.27
2019-05-19T05:38:14.956Z,100570.59
2019-05-19T05:40:43.404Z,100570.25
2019-05-19T05:43:11.859Z,100568.50
2019-05-19T05:45:40.281Z,100570.16
2019-05-19T05:48:08.746Z,100572.61
2019-05-19T05:50:37.201Z,100571.42
2019-05-19T05:53:05.658Z,100569.37
2019-05-19T05:55:34.082Z,100569.20
2019-05-19T05:58:02.533Z,100567.11
2019-05-19T06:00:31.003Z,100569.78
2019-05-19T06:02:59.710Z,100565.06
2019-05-19T06:05:28.128Z,100570.42
2019-05-19T06:07:56.578Z,100574.64
2019-05-19T06:10:25.002Z,100560.12
2019-05-19T06:12:53.436Z,100571.00
2019-05-19T06:15:21.904Z,100570.16
2019-05-19T06:17:50.320Z,100567.54
2019-05-19T06:20:18.763Z,100567.84
2019-05-19T06:22:56.504Z,100568.23
2019-05-19T06:25:16.615Z,100564.64
2019-05-19T06:27:45.065Z,100566.03
2019-05-19T06:30:14.374Z,100572.12
2019-05-19T06:32:50.169Z,100573.94
2019-05-19T06:35:18.742Z,100575.69
2019-05-19T06:37:47.195Z,100571.47
2019-05-19T06:40:16.439Z,100571.75
2019-05-19T06:42:44.865Z,100576.99
2019-05-19T06:45:14.443Z,100572.45
2019-05-19T06:47:42.867Z,100575.69
2019-05-19T06:50:12.041Z,100578.02
2019-05-19T06:52:40.502Z,100571.42
2019-05-19T06:55:09.189Z,100577.43
2019-05-19T06:57:37.640Z,100583.07
2019-05-19T07:00:07.730Z,100592.13
2019-05-19T07:02:36.226Z,100586.80
2019-05-19T07:05:06.411Z,100587.23
2019-05-19T07:07:34.886Z,100588.45
2019-05-19T07:10:04.305Z,100579.77
2019-05-19T07:12:32.744Z,100580.86
2019-05-19T07:15:01.300Z,100581.69
2019-05-19T07:17:29.736Z,100591.59
2019-05-19T07:19:58.167Z,100595.12
2019-05-19T07:22:26.621Z,100594.57
2019-05-19T07:24:55.046Z,100593.95
2019-05-19T07:27:23.499Z,100599.41
2019-05-19T07:29:51.996Z,100607.17
2019-05-19T07:32:20.754Z,100602.61
2019-05-19T07:34:49.203Z,100599.92
2019-05-19T07:37:17.633Z,100607.39
2019-05-19T07:39:46.152Z,100600.89
2019-05-19T07:42:14.608Z,100603.83
2019-05-19T07:44:45.279Z,100601.72
2019-05-19T07:47:13.449Z,100594.93
2019-05-19T07:49:41.920Z,100600.37
2019-05-19T07:52:10.351Z,100594.21
2019-05-19T07:54:38.778Z,100599.63
2019-05-19T07:57:07.279Z,100599.96
2019-05-19T07:59:35.715Z,100602.57
2019-05-19T08:02:04.229Z,100603.31
2019-05-19T08:04:32.668Z,100604.47
2019-05-19T08:07:01.108Z,100606.68
2019-05-19T08:09:29.548Z,100613.69
2019-05-19T08:11:58.018Z,100608.67
2019-05-19T08:14:26.441Z,100614.55
2019-05-19T08:16:54.878Z,100608.56
2019-05-19T08:19:23.348Z,100604.34
2019-05-19T08:21:51.769Z,100608.64
2019-05-19T08:24:20.198Z,100601.98
2019-05-19T08:26:48.636Z,100608.47
2019-05-19T08:29:17.065Z,100599.20
2019-05-19T08:31:45.514Z,100608.48
2019-05-19T08:34:13.947Z,100605.19
2019-05-19T08:36:42.411Z,100603.48
2019-05-19T08:39:10.893Z,100601.74
2019-05-19T08:41:39.361Z,100603.69
2019-05-19T08:44:07.798Z,100601.45
2019-05-19T08:46:36.234Z,100605.78
2019-05-19T08:49:04.734Z,100605.06
2019-05-19T08:51:33.165Z,100520.88
2019-05-19T08:54:13.906Z,100596.63
2019-05-19T08:56:31.741Z,100580.58
2019-05-19T08:59:00.180Z,100595.25
2019-05-19T09:01:28.611Z,100602.34
2019-05-19T09:03:57.146Z,100601.72
2019-05-19T09:06:25.584Z,100595.81
2019-05-19T09:08:54.017Z,100601.43
2019-05-19T09:11:22.441Z,100600.99
2019-05-19T09:13:50.882Z,100595.77
2019-05-19T09:16:19.337Z,100588.17
2019-05-19T09:18:47.846Z,100596.64
2019-05-19T09:21:17.511Z,100536.73
2019-05-19T09:23:45.917Z,100584.20
2019-05-19T09:26:14.387Z,100584.35
2019-05-19T09:28:42.839Z,100582.77
2019-05-19T09:31:11.272Z,100580.03
2019-05-19T09:33:39.714Z,100581.42
2019-05-19T09:36:08.145Z,100577.43
2019-05-19T09:38:36.901Z,100575.80
2019-05-19T09:41:05.509Z,100568.77
2019-05-19T09:43:33.934Z,100571.30
2019-05-19T09:46:02.375Z,100576.30
2019-05-19T09:48:30.835Z,100576.38
2019-05-19T09:50:59.278Z,100575.70
2019-05-19T09:53:27.708Z,100569.52
2019-05-19T09:55:56.132Z,100571.77
2019-05-19T09:58:26.116Z,100570.06
2019-05-19T10:00:53.812Z,100571.69
2019-05-19T10:03:22.302Z,100569.02
2019-05-19T10:05:50.701Z,100562.59
2019-05-19T10:08:25.474Z,100569.89
2019-05-19T10:11:16.556Z,100562.69
2019-05-19T10:13:45.039Z,100556.42
2019-05-19T10:16:13.463Z,100556.66
2019-05-19T10:18:41.929Z,100552.59
2019-05-19T10:21:10.392Z,100552.16
2019-05-19T10:23:38.777Z,100552.97
2019-05-19T10:26:07.246Z,100544.98
2019-05-19T10:28:35.661Z,100548.59
2019-05-19T10:31:04.097Z,100549.77
2019-05-19T10:33:32.547Z,100543.14
2019-05-19T10:36:01.011Z,100548.55
2019-05-19T10:38:29.483Z,100532.63
2019-05-19T10:40:57.905Z,100528.05
2019-05-19T10:43:26.329Z,100532.52
2019-05-19T10:46:00.614Z,100526.80
2019-05-19T10:48:29.047Z,100531.50
2019-05-19T10:50:57.477Z,100522.88
2019-05-19T10:53:25.930Z,100527.31
2019-05-19T10:55:54.405Z,100525.08
2019-05-19T10:58:22.819Z,100522.08
2019-05-19T11:00:51.252Z,100519.52
2019-05-19T11:03:19.687Z,100525.61
2019-05-19T11:05:48.110Z,100519.38
2019-05-19T11:08:16.563Z,100515.10
2019-05-19T11:10:44.974Z,100515.10
2019-05-19T11:13:13.405Z,100516.48
2019-05-19T11:15:41.838Z,100510.17
2019-05-19T11:18:10.274Z,100510.33
2019-05-19T11:20:38.718Z,100510.06
2019-05-19T11:23:07.148Z,100499.64
2019-05-19T11:25:49.261Z,100497.47
2019-05-19T11:28:05.735Z,100492.31
2019-05-19T11:30:34.158Z,100498.70
2019-05-19T11:33:02.599Z,100505.83
2019-05-19T11:35:31.072Z,100505.83
2019-05-19T11:37:59.837Z,100498.41
2019-05-19T11:40:28.253Z,100492.62
2019-05-19T11:42:56.685Z,100496.79
2019-05-19T11:45:25.141Z,100499.54
2019-05-19T11:47:53.559Z,100489.04
2019-05-19T11:50:21.978Z,100485.74
2019-05-19T11:52:50.496Z,100485.13
2019-05-19T11:55:18.917Z,100483.31
2019-05-19T11:57:47.379Z,100480.23
2019-05-19T12:00:16.238Z,100484.08
2019-05-19T12:02:44.657Z,100484.41
2019-05-19T12:05:13.647Z,100478.86
2019-05-19T12:07:42.067Z,100479.08
2019-05-19T12:10:10.844Z,100469.64
2019-05-19T12:12:39.385Z,100476.52
2019-05-19T12:15:09.051Z,100466.34
2019-05-19T12:17:36.753Z,100462.20
2019-05-19T12:20:06.654Z,100464.72
2019-05-19T12:22:35.094Z,100464.70
2019-05-19T12:25:03.997Z,100456.19
2019-05-19T12:27:32.467Z,100460.30
2019-05-19T12:30:00.849Z,100458.66
2019-05-19T12:32:29.346Z,100458.05
2019-05-19T12:34:57.784Z,100440.98
2019-05-19T12:37:26.246Z,100446.34
2019-05-19T12:39:54.673Z,100446.34
2019-05-19T12:42:23.109Z,100427.13
2019-05-19T12:44:51.550Z,100446.12
2019-05-19T12:47:19.994Z,100446.87
2019-05-19T12:49:48.433Z,100441.72
2019-05-19T12:52:16.858Z,100436.20
2019-05-19T12:54:45.337Z,100437.53
2019-05-19T12:57:13.828Z,100431.80
2019-05-19T12:59:42.266Z,100430.48
2019-05-19T13:02:10.870Z,100422.52
2019-05-19T13:04:39.373Z,100429.74
2019-05-19T13:07:07.775Z,100431.39
2019-05-19T13:09:36.200Z,100421.19
2019-05-19T13:12:04.746Z,100416.56
2019-05-19T13:14:33.180Z,100416.56
2019-05-19T13:17:01.620Z,100415.41
2019-05-19T13:19:30.062Z,100418.67
2019-05-19T13:21:58.546Z,100425.20
2019-05-19T13:24:27.032Z,100412.47
2019-05-19T13:26:56.982Z,100410.53
2019-05-19T13:29:25.600Z,100410.45
2019-05-19T13:31:54.025Z,100414.06
2019-05-19T13:34:22.461Z,100411.78
2019-05-19T13:36:50.905Z,100407.38
2019-05-19T13:39:19.815Z,100408.69
2019-05-19T13:41:48.255Z,100410.48
2019-05-19T13:44:16.686Z,100409.94
2019-05-19T13:46:45.133Z,100401.64
2019-05-19T13:49:13.556Z,100394.69
2019-05-19T13:51:41.994Z,100402.78
2019-05-19T13:54:10.430Z,100399.98
2019-05-19T13:56:38.868Z,100396.69
2019-05-19T13:59:07.296Z,100396.69
2019-05-19T14:01:35.733Z,100400.85
2019-05-19T14:04:04.156Z,100394.61
2019-05-19T14:06:32.596Z,100391.86
2019-05-19T14:09:01.059Z,100392.17
2019-05-19T14:11:29.481Z,100394.98
2019-05-19T14:13:57.914Z,100397.20
2019-05-19T14:16:26.370Z,100396.44
2019-05-19T14:18:54.846Z,100391.53
2019-05-19T14:21:23.240Z,100387.95
2019-05-19T14:23:52.012Z,100387.43
2019-05-19T14:26:20.623Z,100392.92
2019-05-19T14:28:49.019Z,100383.84
2019-05-19T14:31:17.449Z,100392.08
2019-05-19T14:33:45.907Z,100388.77
2019-05-19T14:36:14.345Z,100398.11
2019-05-19T14:38:44.456Z,100393.13
2019-05-19T14:41:12.877Z,100393.37
2019-05-19T14:43:41.309Z,100399.36
2019-05-19T14:46:09.765Z,100391.42
2019-05-19T14:48:38.170Z,100394.97
2019-05-19T14:51:06.600Z,100394.47
2019-05-19T14:53:35.041Z,100396.06
2019-05-19T14:56:03.566Z,100385.38
2019-05-19T14:58:31.996Z,100389.99
2019-05-19T15:01:00.455Z,100386.52
2019-05-19T15:03:28.882Z,100389.45
2019-05-19T15:05:57.327Z,100381.77
2019-05-19T15:08:25.750Z,100379.84
2019-05-19T15:10:54.178Z,100380.68
2019-05-19T15:13:22.605Z,100384.23
2019-05-19T15:15:51.069Z,100389.19
2019-05-19T15:18:19.500Z,100383.75
2019-05-19T15:20:47.932Z,100382.63
2019-05-19T15:23:16.368Z,100386.50
2019-05-19T15:25:44.813Z,100381.92
2019-05-19T15:28:13.273Z,100320.10
2019-05-19T15:30:41.698Z,100381.64
2019-05-19T15:33:10.164Z,100381.38
2019-05-19T15:35:38.591Z,100377.25
2019-05-19T15:38:07.123Z,100378.09
2019-05-19T15:40:35.565Z,100377.75
2019-05-19T15:43:03.984Z,100371.42
2019-05-19T15:45:32.416Z,100366.39
2019-05-19T15:48:00.837Z,100361.65
2019-05-19T15:50:29.264Z,100356.23
2019-05-19T15:52:57.764Z,100355.55
2019-05-19T15:55:26.208Z,100350.64
2019-05-19T15:57:54.648Z,100348.80
2019-05-19T16:00:23.358Z,100346.59
2019-05-19T16:02:51.782Z,100350.55
2019-05-19T16:05:20.224Z,100337.62
2019-05-19T16:07:48.657Z,100345.06
2019-05-19T16:10:17.501Z,100352.87
2019-05-19T16:12:46.016Z,100349.64
2019-05-19T16:15:14.997Z,100352.27
2019-05-19T16:17:43.471Z,100344.81
2019-05-19T16:20:12.338Z,100349.78
2019-05-19T16:22:40.911Z,100353.83
2019-05-19T16:25:10.080Z,100357.46
2019-05-19T16:27:38.707Z,100350.80
2019-05-19T16:30:07.867Z,100348.38
2019-05-19T16:32:36.352Z,100348.81
2019-05-19T16:35:06.702Z,100350.41
2019-05-19T16:37:35.136Z,100351.12
2019-05-19T16:40:03.829Z,100355.28
2019-05-19T16:42:32.295Z,100349.96
2019-05-19T16:45:00.730Z,100344.34
2019-05-19T16:47:29.161Z,100346.05
2019-05-19T16:49:57.617Z,100338.14
2019-05-19T16:52:26.077Z,100347.34
2019-05-19T16:55:12.277Z,100351.42
2019-05-19T16:57:40.689Z,100341.39
2019-05-19T17:00:09.454Z,100344.16
2019-05-19T17:02:37.879Z,100349.36
2019-05-19T17:05:07.755Z,100342.23
2019-05-19T17:07:36.273Z,100334.84
2019-05-19T17:10:07.098Z,100333.62
2019-05-19T17:12:35.536Z,100334.03
2019-05-19T17:15:04.938Z,100327.41
2019-05-19T17:17:33.366Z,100334.85
2019-05-19T17:20:01.805Z,100328.61
2019-05-19T17:22:30.229Z,100328.55
2019-05-19T17:25:00.417Z,100331.71
2019-05-19T17:27:28.976Z,100328.41
2019-05-19T17:29:57.411Z,100325.41
2019-05-19T17:32:25.842Z,100320.99
2019-05-19T17:34:54.273Z,100319.82
2019-05-19T17:37:22.745Z,100315.20
2019-05-19T17:39:51.151Z,100317.24
2019-05-19T17:42:19.591Z,100323.16
2019-05-19T17:44:48.030Z,100318.13
2019-05-19T17:47:16.905Z,100320.61
2019-05-19T17:49:45.419Z,100318.55
2019-05-19T17:52:13.923Z,100312.95
2019-05-19T17:54:42.430Z,100318.26
2019-05-19T17:57:11.449Z,100327.41
2019-05-19T17:59:41.659Z,100318.40
2019-05-19T18:02:10.096Z,100315.45
2019-05-19T18:04:38.525Z,100319.41
2019-05-19T18:07:06.964Z,100324.05
2019-05-19T18:09:35.394Z,100324.87
2019-05-19T18:12:03.823Z,100324.87
2019-05-19T18:14:32.263Z,100323.48
2019-05-19T18:17:00.696Z,100334.78
2019-05-19T18:19:29.161Z,100335.75
2019-05-19T18:21:57.591Z,100336.17
2019-05-19T18:24:26.023Z,100335.67
2019-05-19T18:26:54.458Z,100333.75
2019-05-19T18:29:30.958Z,100339.39
2019-05-19T18:31:52.330Z,100344.86
2019-05-19T18:34:20.704Z,100339.52
2019-05-19T18:36:49.179Z,100345.36
2019-05-19T18:39:17.660Z,100343.34
2019-05-19T18:41:46.094Z,100344.16
2019-05-19T18:44:14.518Z,100349.11
2019-05-19T18:46:43.157Z,100346.00
2019-05-19T18:49:11.650Z,100352.33
2019-05-19T18:51:40.098Z,100361.00
2019-05-19T18:54:08.534Z,100360.98
2019-05-19T18:56:37.080Z,100360.68
2019-05-19T18:59:05.506Z,100358.53
2019-05-19T19:01:34.023Z,100364.70
2019-05-19T19:04:02.471Z,100374.65
2019-05-19T19:06:32.650Z,100373.17
2019-05-19T19:09:01.205Z,100371.72
2019-05-19T19:11:29.761Z,100376.27
2019-05-19T19:13:58.242Z,100385.20
2019-05-19T19:16:29.694Z,100387.54
2019-05-19T19:18:58.271Z,100384.06
2019-05-19T19:21:26.730Z,100392.95
2019-05-19T19:23:55.203Z,100390.60
2019-05-19T19:26:23.678Z,100395.18
2019-05-19T19:28:52.135Z,100395.17
2019-05-19T19:31:21.698Z,100400.50
2019-05-19T19:33:49.379Z,100399.36
2019-05-19T19:36:18.513Z,100399.13
2019-05-19T19:38:47.023Z,100399.55
2019-05-19T19:41:15.477Z,100398.71
2019-05-19T19:43:43.906Z,100406.80
2019-05-19T19:46:12.386Z,100415.31
2019-05-19T19:48:40.880Z,100415.14
2019-05-19T19:51:09.336Z,100419.07
2019-05-19T19:53:37.754Z,100420.38
2019-05-19T19:56:06.295Z,100414.03
2019-05-19T19:58:34.732Z,100427.91
2019-05-19T20:01:03.168Z,100418.94
2019-05-19T20:03:32.184Z,100421.50
2019-05-19T20:06:00.606Z,100424.66
2019-05-19T20:08:29.076Z,100430.02
2019-05-19T20:10:57.551Z,100436.03
2019-05-19T20:13:25.936Z,100432.00
2019-05-19T20:15:54.670Z,100432.81
2019-05-19T20:18:23.192Z,100431.24
2019-05-19T20:20:51.589Z,100430.51
2019-05-19T20:23:20.075Z,100431.16
2019-05-19T20:25:48.585Z,100436.52
2019-05-19T20:28:17.041Z,100438.44
2019-05-19T20:30:45.538Z,100439.72
2019-05-19T20:33:14.091Z,100439.81
2019-05-19T20:35:42.817Z,100438.01
2019-05-19T20:38:11.436Z,100439.93
2019-05-19T20:40:39.865Z,100433.28
2019-05-19T20:43:08.327Z,100432.18
2019-05-19T20:45:36.750Z,100428.71
2019-05-19T20:48:05.248Z,100438.01
2019-05-19T20:50:33.749Z,100031.17
2019-05-19T20:53:02.245Z,100438.28
2019-05-19T20:55:30.666Z,100429.75
2019-05-19T20:57:59.162Z,100432.12
2019-05-19T21:00:28.024Z,100427.30
2019-05-19T21:02:56.460Z,100429.86
2019-05-19T21:05:24.897Z,100421.21
2019-05-19T21:07:53.358Z,100034.88
2019-05-19T21:10:21.812Z,100422.80
2019-05-19T21:12:50.244Z,100422.15
2019-05-19T21:15:18.682Z,100425.25
2019-05-19T21:17:47.108Z,100421.88
2019-05-19T21:20:15.669Z,100425.27
2019-05-19T21:22:44.100Z,100429.17
2019-05-19T21:25:12.612Z,100427.50
2019-05-19T21:27:41.072Z,100429.55
2019-05-19T21:30:09.960Z,100424.21
2019-05-19T21:32:38.403Z,100426.61
2019-05-19T21:35:07.589Z,100432.88
2019-05-19T21:37:36.021Z,100429.86
2019-05-19T21:40:07.074Z,100433.77
2019-05-19T21:42:35.526Z,100434.92
2019-05-19T21:45:05.315Z,100431.91
2019-05-19T21:47:33.732Z,100431.58
2019-05-19T21:50:02.523Z,100432.75
2019-05-19T21:52:31.150Z,100428.56
2019-05-19T21:54:59.921Z,100427.73
2019-05-19T21:57:28.368Z,100431.95
2019-05-19T21:59:56.790Z,100428.42
2019-05-19T22:02:25.294Z,100433.30
2019-05-19T22:04:53.777Z,100435.02
2019-05-19T22:07:26.778Z,100434.19
2019-05-19T22:09:55.221Z,100437.79
2019-05-19T22:12:23.719Z,100436.12
2019-05-19T22:14:52.143Z,100436.67
2019-05-19T22:17:20.601Z,100427.95
2019-05-19T22:19:49.034Z,100431.23
2019-05-19T22:22:17.484Z,100432.94
2019-05-19T22:24:45.919Z,100427.09
2019-05-19T22:27:14.358Z,100426.95
2019-05-19T22:29:42.796Z,100427.72
2019-05-19T22:32:11.237Z,100430.08
2019-05-19T22:34:39.669Z,100425.94
2019-05-19T22:37:08.283Z,100436.56
2019-05-19T22:39:36.801Z,100438.27
2019-05-19T22:42:05.243Z,100436.81
2019-05-19T22:44:33.689Z,100424.42
2019-05-19T22:47:02.153Z,100433.18
2019-05-19T22:49:30.557Z,100427.18
2019-05-19T22:51:58.986Z,100439.69
2019-05-19T22:54:27.429Z,100440.23
2019-05-19T22:56:55.854Z,100438.22
2019-05-19T22:59:24.298Z,100437.60
2019-05-19T23:01:52.747Z,100429.60
2019-05-19T23:04:21.175Z,100432.80
2019-05-19T23:06:49.626Z,100421.23
2019-05-19T23:09:18.064Z,100423.66
2019-05-19T23:11:46.498Z,100422.34
2019-05-19T23:14:14.949Z,100416.49
2019-05-19T23:16:43.380Z,100333.88
2019-05-19T23:19:11.823Z,100413.90
2019-05-19T23:21:40.267Z,100417.78
2019-05-19T23:24:08.722Z,100414.44
2019-05-19T23:26:37.154Z,100411.27
2019-05-19T23:29:05.610Z,100417.16
2019-05-19T23:31:34.112Z,100412.61
2019-05-19T23:34:02.535Z,100410.25
2019-05-19T23:36:30.989Z,100405.03
2019-05-19T23:38:59.442Z,100411.90
2019-05-19T23:41:27.880Z,100410.88
2019-05-19T23:43:56.314Z,100412.67
2019-05-19T23:46:24.745Z,100408.61
2019-05-19T23:48:53.213Z,100409.09
2019-05-19T23:51:21.647Z,100400.99
2019-05-19T23:53:50.086Z,100403.61
2019-05-19T23:56:18.529Z,100402.75
2019-05-19T23:58:46.948Z,100404.23
